Terminal Aerodrome Forecast
Issued by NWS

Home | Current Version | Previous Version | Text Only | Print | Product List | Glossary On
Versions: 1 2 3 4 5 6 7 8 9 10 11 12 13 14 15 16 17 18
634
FTPA31 PHFO 281722
TAFHJR
TAF
PHJR 281722Z 2818/2918 VRB03KT P6SM FEW025 SCT060
     FM282000 16008KT P6SM FEW030 SCT060
     FM282300 19008KT P6SM VCSH SCT025 BKN060
      TEMPO 2900/2904 5SM -SHRA BKN025
     FM290500 VRB03KT P6SM SCT025 BKN060=

USA.gov is the U.S. government's official web portal to all federal, state and local government web resources and services.